Detall de PIREP

Printer-friendly versionPDF version

[2008/09/12 20:47:00]
Flight IATA:CT3125
Pilot Number:037
Company ICAO:CAT
Aircraft Type:AT72/F
PAX:21
Departing Airport: LEVC
Destination Airport: LFMP
Alternate Airport:LFBO
Online: VATSIM
Route:SOPET UM985 BCN UN870 DALIN/N0300F240 A67 BGR/N0300F180 A27 KANIG
Flight Level:FL200
No Slew and time accel
No pause
Crash detect
Detect pilot in Cockpit between each 30 and 45 minutes
20:47 Zero fuel Weight: 40068 Lbs, Fuel Weight: 3866 Lbs
20:47 VATSIM:LEVC 122030Z 29004KT 9999 FEW040 19/10 Q1017 NOSIG
20:47 VATSIM:LFMP 122030Z AUTO 31015G25KT 9999NDV FEW098 OVC110 17/09 Q1017
20:51 Parking Brakes off
20:59 Take-off
20:59 Take off Weight: 43832 Lbs
20:59 Wind: 293? @ 004 Knots Heading: 113?
20:59 POS N39? 29? 15?? W000? 28? 36??
20:59 Flaps:1 at 123 Knots
20:59 Gear Up: 127 Knots
21:00 Flaps:0 at 153 Knots
21:14 Wind:324?@015 Knots Heading: 043? Ground Speed: 240 Knot
s Altitude 19862 ft
21:14 TOC
21:14 Fuel Weight: 3264 Lb
21:29 Wind:300?@026 Knots Heading: 043? Ground Speed: 306 Knots Altitude 20042 ft
21:44 Wind:337?@016 Knots Heading: 062? Ground Speed: 297 Knots Altitude 20059 ft
21:49 TOD
21:49 Fuel Weight: 2221 Lb
21:59 Wind:300?@023 Knots Heading: 338? Ground Speed: 206 Knots Altitude 5190 ft
22:01 Flaps:1 at 171 Knots
22:03 Flaps:2 at 194 Knots
22:04 Gear Down: 111 Knots
22:05 TouchDown:Rate -223 ft/min Speed: 100 Knots
22:06 VATSIM:LFMP 122130Z AUTO 30013G24KT 260V330 9999NDV SCT100 SCT120 17/09 Q1017
22:06 Land
22:06 Wind:301?@013 Knots
22:06 Heading: 334?
22:06 Flight Duration: 01:07
22:06 Landing Weight: 42091 Lbs
22:06 POS N42? 44? 33?? E002? 52? 16??
22:08 Parking brakes on
22:08 Block to Block Duration: 01:17
22:08 Final Fuel: 2001 Lbls
22:08 Spent Fuel: 1865 Lbls
22:08 Flight Length: 287 NM
22:08
TOD Land Length: 56 NM

Exportar CSV

Powered by Drupal - Modified by Danger4k